Bulawayo, Zimbabwe
Current Conditions -  °F | °C
As of 7:00 PM on Tuesday 21 Oct 2014 (Local Time) from FBFT Reporting Station
Clear Clear  
Wind Chill: 82°   Ceiling: Unl
Heat Index: 82°   Visibility: 6mi
Dew Point: 46°   Wind: 16mph
Humidity: 28%   Direction: 110°ESE
Pressure: 30.09"   Gusts: NA
Location:  20.17°S, 28.58°E
Report Text: FBFT 211700Z 11014KT CAVOK 28/08 Q1019
Loading
Personal Weather Stations






























Interactive Weather Map
Tropical Storm Tracking
New forecast layout! Learn more

10-Day Weather Forecast

Advertisements
Track Severe Weather on mobile